sensor_id;sensor_type;location;lat;lon;timestamp;pressure;altitude;pressure_sealevel;temperature;humidity
75418;BME280;63997;52.112;5.420;2024-01-15T00:01:45;100395.13;;;0.90;100.00
75418;BME280;63997;52.112;5.420;2024-01-15T00:04:12;100396.41;;;0.93;100.00
75418;BME280;63997;52.112;5.420;2024-01-15T00:06:38;100395.91;;;0.91;100.00
75418;BME280;63997;52.112;5.420;2024-01-15T00:09:05;100387.28;;;0.90;100.00
75418;BME280;63997;52.112;5.420;2024-01-15T00:11:33;100387.50;;;0.89;100.00
75418;BME280;63997;52.112;5.420;2024-01-15T00:13:59;100381.25;;;0.85;100.00
75418;BME280;63997;52.112;5.420;2024-01-15T00:16:26;100385.44;;;0.81;100.00
75418;BME280;63997;52.112;5.420;2024-01-15T00:18:52;100380.22;;;0.81;100.00
75418;BME280;63997;52.112;5.420;2024-01-15T00:21:19;100374.72;;;0.77;100.00
75418;BME280;63997;52.112;5.420;2024-01-15T00:23:46;100374.47;;;0.73;100.00
75418;BME280;63997;52.112;5.420;2024-01-15T00:26:12;100373.44;;;0.69;100.00
75418;BME280;63997;52.112;5.420;2024-01-15T00:28:39;100359.81;;;0.67;100.00
75418;BME280;63997;52.112;5.420;2024-01-15T00:31:05;100363.50;;;0.61;100.00
75418;BME280;63997;52.112;5.420;2024-01-15T00:33:32;100357.22;;;0.57;100.00
75418;BME280;63997;52.112;5.420;2024-01-15T00:35:59;100359.84;;;0.57;100.00
75418;BME280;63997;52.112;5.420;2024-01-15T00:38:25;100349.91;;;0.54;100.00
75418;BME280;63997;52.112;5.420;2024-01-15T00:40:52;100352.00;;;0.52;100.00
75418;BME280;63997;52.112;5.420;2024-01-15T00:43:18;100340.22;;;0.49;100.00
75418;BME280;63997;52.112;5.420;2024-01-15T00:45:45;100343.09;;;0.48;100.00
75418;BME280;63997;52.112;5.420;2024-01-15T00:48:12;100339.44;;;0.44;100.00
75418;BME280;63997;52.112;5.420;2024-01-15T00:50:39;100336.31;;;0.42;100.00
75418;BME280;63997;52.112;5.420;2024-01-15T00:53:05;100330.03;;;0.38;100.00
75418;BME280;63997;52.112;5.420;2024-01-15T00:55:32;100325.84;;;0.37;100.00
75418;BME280;63997;52.112;5.420;2024-01-15T00:57:58;100323.75;;;0.34;100.00
75418;BME280;63997;52.112;5.420;2024-01-15T01:00:25;100330.31;;;0.31;100.00
75418;BME280;63997;52.112;5.420;2024-01-15T01:02:51;100334.25;;;0.29;100.00
75418;BME280;63997;52.112;5.420;2024-01-15T01:05:18;100327.69;;;0.26;100.00
75418;BME280;63997;52.112;5.420;2024-01-15T01:07:44;100324.81;;;0.22;100.00
75418;BME280;63997;52.112;5.420;2024-01-15T01:10:11;100325.09;;;0.21;100.00
75418;BME280;63997;52.112;5.420;2024-01-15T01:12:37;100319.84;;;0.21;100.00
75418;BME280;63997;52.112;5.420;2024-01-15T01:15:04;100320.13;;;0.19;100.00
75418;BME280;63997;52.112;5.420;2024-01-15T01:17:31;100314.38;;;0.17;100.00
75418;BME280;63997;52.112;5.420;2024-01-15T01:19:58;100315.41;;;0.16;100.00
75418;BME280;63997;52.112;5.420;2024-01-15T01:22:25;100310.19;;;0.16;100.00
75418;BME280;63997;52.112;5.420;2024-01-15T01:24:51;100313.84;;;0.15;100.00
75418;BME280;63997;52.112;5.420;2024-01-15T01:27:18;100303.13;;;0.17;100.00
75418;BME280;63997;52.112;5.420;2024-01-15T01:29:44;100310.72;;;0.18;100.00
75418;BME280;63997;52.112;5.420;2024-01-15T01:32:11;100320.41;;;0.18;100.00
75418;BME280;63997;52.112;5.420;2024-01-15T01:34:41;100313.34;;;0.18;100.00
75418;BME280;63997;52.112;5.420;2024-01-15T01:37:11;100315.94;;;0.18;100.00
75418;BME280;63997;52.112;5.420;2024-01-15T01:39:41;100316.72;;;0.19;100.00
75418;BME280;63997;52.112;5.420;2024-01-15T01:42:08;100320.13;;;0.19;100.00
75418;BME280;63997;52.112;5.420;2024-01-15T01:44:35;100315.41;;;0.21;100.00
75418;BME280;63997;52.112;5.420;2024-01-15T01:47:02;100317.50;;;0.19;100.00
75418;BME280;63997;52.112;5.420;2024-01-15T01:49:30;100309.66;;;0.19;100.00
75418;BME280;63997;52.112;5.420;2024-01-15T01:51:57;100310.19;;;0.21;100.00
75418;BME280;63997;52.112;5.420;2024-01-15T01:54:26;100299.72;;;0.21;100.00
75418;BME280;63997;52.112;5.420;2024-01-15T01:56:55;100304.69;;;0.23;100.00
75418;BME280;63997;52.112;5.420;2024-01-15T01:59:23;100312.28;;;0.24;100.00
75418;BME280;63997;52.112;5.420;2024-01-15T02:01:54;100306.50;;;0.28;100.00
75418;BME280;63997;52.112;5.420;2024-01-15T02:04:23;100310.44;;;0.30;100.00
75418;BME280;63997;52.112;5.420;2024-01-15T02:06:51;100317.50;;;0.30;100.00
75418;BME280;63997;52.112;5.420;2024-01-15T02:09:18;100312.28;;;0.35;100.00
75418;BME280;63997;52.112;5.420;2024-01-15T02:11:47;100320.63;;;0.42;100.00
75418;BME280;63997;52.112;5.420;2024-01-15T02:14:15;100325.31;;;0.50;100.00
75418;BME280;63997;52.112;5.420;2024-01-15T02:16:42;100340.22;;;0.55;100.00
75418;BME280;63997;52.112;5.420;2024-01-15T02:19:15;100342.81;;;0.65;100.00
75418;BME280;63997;52.112;5.420;2024-01-15T02:21:42;100334.69;;;0.71;100.00
75418;BME280;63997;52.112;5.420;2024-01-15T02:24:09;100336.25;;;0.77;100.00
75418;BME280;63997;52.112;5.420;2024-01-15T02:26:36;100327.88;;;0.81;100.00
75418;BME280;63997;52.112;5.420;2024-01-15T02:29:08;100318.97;;;0.76;100.00
75418;BME280;63997;52.112;5.420;2024-01-15T02:31:37;100331.56;;;0.74;100.00
75418;BME280;63997;52.112;5.420;2024-01-15T02:34:04;100320.56;;;0.72;100.00
75418;BME280;63997;52.112;5.420;2024-01-15T02:36:31;100322.16;;;0.73;100.00
75418;BME280;63997;52.112;5.420;2024-01-15T02:38:58;100309.56;;;0.75;100.00
75418;BME280;63997;52.112;5.420;2024-01-15T02:41:24;100324.75;;;0.73;100.00
75418;BME280;63997;52.112;5.420;2024-01-15T02:43:51;100314.53;;;0.72;100.00
75418;BME280;63997;52.112;5.420;2024-01-15T02:46:18;100316.38;;;0.71;100.00
75418;BME280;63997;52.112;5.420;2024-01-15T02:48:44;100313.25;;;0.74;100.00
75418;BME280;63997;52.112;5.420;2024-01-15T02:51:11;100314.81;;;0.75;100.00
75418;BME280;63997;52.112;5.420;2024-01-15T02:53:39;100309.00;;;0.78;100.00
75418;BME280;63997;52.112;5.420;2024-01-15T02:56:07;100308.50;;;0.76;100.00
75418;BME280;63997;52.112;5.420;2024-01-15T02:58:34;100306.94;;;0.75;100.00
75418;BME280;63997;52.112;5.420;2024-01-15T03:01:00;100309.84;;;0.74;100.00
75418;BME280;63997;52.112;5.420;2024-01-15T03:03:27;100314.25;;;0.78;100.00
75418;BME280;63997;52.112;5.420;2024-01-15T03:05:54;100309.28;;;0.77;100.00
75418;BME280;63997;52.112;5.420;2024-01-15T03:08:21;100315.31;;;0.72;100.00
75418;BME280;63997;52.112;5.420;2024-01-15T03:10:49;100306.97;;;0.70;100.00
75418;BME280;63997;52.112;5.420;2024-01-15T03:13:15;100304.34;;;0.70;100.00
75418;BME280;63997;52.112;5.420;2024-01-15T03:15:43;100306.44;;;0.68;100.00
75418;BME280;63997;52.112;5.420;2024-01-15T03:18:09;100304.63;;;0.69;100.00
75418;BME280;63997;52.112;5.420;2024-01-15T03:20:36;100299.91;;;0.66;100.00
75418;BME280;63997;52.112;5.420;2024-01-15T03:23:03;100302.78;;;0.64;100.00
75418;BME280;63997;52.112;5.420;2024-01-15T03:25:29;100299.66;;;0.62;100.00
75418;BME280;63997;52.112;5.420;2024-01-15T03:27:56;100303.59;;;0.60;100.00
75418;BME280;63997;52.112;5.420;2024-01-15T03:30:22;100293.91;;;0.55;100.00
75418;BME280;63997;52.112;5.420;2024-01-15T03:32:49;100304.66;;;0.53;100.00
75418;BME280;63997;52.112;5.420;2024-01-15T03:35:16;100300.75;;;0.51;100.00
75418;BME280;63997;52.112;5.420;2024-01-15T03:37:43;100297.31;;;0.50;100.00
75418;BME280;63997;52.112;5.420;2024-01-15T03:40:10;100297.06;;;0.52;100.00
75418;BME280;63997;52.112;5.420;2024-01-15T03:42:37;100308.56;;;0.56;100.00
75418;BME280;63997;52.112;5.420;2024-01-15T03:45:04;100310.13;;;0.62;100.00
75418;BME280;63997;52.112;5.420;2024-01-15T03:47:30;100314.81;;;0.65;100.00
75418;BME280;63997;52.112;5.420;2024-01-15T03:49:57;100320.31;;;0.69;100.00
75418;BME280;63997;52.112;5.420;2024-01-15T03:52:23;100316.91;;;0.68;100.00
75418;BME280;63997;52.112;5.420;2024-01-15T03:54:50;100319.53;;;0.68;100.00
75418;BME280;63997;52.112;5.420;2024-01-15T03:57:16;100312.72;;;0.67;100.00
75418;BME280;63997;52.112;5.420;2024-01-15T03:59:43;100289.16;;;0.67;100.00
75418;BME280;63997;52.112;5.420;2024-01-15T04:02:10;100289.44;;;0.66;100.00
75418;BME280;63997;52.112;5.420;2024-01-15T04:04:36;100267.22;;;0.63;100.00
75418;BME280;63997;52.112;5.420;2024-01-15T04:07:06;100276.63;;;0.59;100.00
75418;BME280;63997;52.112;5.420;2024-01-15T04:09:33;100280.03;;;0.55;100.00
75418;BME280;63997;52.112;5.420;2024-01-15T04:12:00;100267.25;;;0.53;100.00
75418;BME280;63997;52.112;5.420;2024-01-15T04:14:26;100265.69;;;0.52;100.00
75418;BME280;63997;52.112;5.420;2024-01-15T04:16:53;100256.00;;;0.47;100.00
75418;BME280;63997;52.112;5.420;2024-01-15T04:19:20;100259.41;;;0.43;100.00
75418;BME280;63997;52.112;5.420;2024-01-15T04:21:46;100260.75;;;0.40;100.00
75418;BME280;63997;52.112;5.420;2024-01-15T04:24:13;100259.69;;;0.41;100.00
75418;BME280;63997;52.112;5.420;2024-01-15T04:26:39;100262.81;;;0.38;100.00
75418;BME280;63997;52.112;5.420;2024-01-15T04:29:06;100255.25;;;0.37;100.00
75418;BME280;63997;52.112;5.420;2024-01-15T04:31:36;100255.25;;;0.37;100.00
75418;BME280;63997;52.112;5.420;2024-01-15T04:34:03;100249.75;;;0.33;100.00
75418;BME280;63997;52.112;5.420;2024-01-15T04:36:29;100253.69;;;0.31;100.00
75418;BME280;63997;52.112;5.420;2024-01-15T04:38:57;100241.13;;;0.28;100.00
75418;BME280;63997;52.112;5.420;2024-01-15T04:41:23;100245.06;;;0.25;100.00
75418;BME280;63997;52.112;5.420;2024-01-15T04:43:50;100242.97;;;0.22;100.00
75418;BME280;63997;52.112;5.420;2024-01-15T04:46:16;100233.84;;;0.19;100.00
75418;BME280;63997;52.112;5.420;2024-01-15T04:48:43;100232.28;;;0.18;100.00
75418;BME280;63997;52.112;5.420;2024-01-15T04:51:10;100226.50;;;0.16;100.00
75418;BME280;63997;52.112;5.420;2024-01-15T04:53:36;100227.56;;;0.15;100.00
75418;BME280;63997;52.112;5.420;2024-01-15T04:56:03;100221.81;;;0.18;100.00
75418;BME280;63997;52.112;5.420;2024-01-15T04:58:30;100234.09;;;0.23;100.00
75418;BME280;63997;52.112;5.420;2024-01-15T05:00:56;100233.03;;;0.29;100.00
75418;BME280;63997;52.112;5.420;2024-01-15T05:03:23;100238.50;;;0.33;100.00
75418;BME280;63997;52.112;5.420;2024-01-15T05:05:50;100234.31;;;0.37;100.00
75418;BME280;63997;52.112;5.420;2024-01-15T05:08:17;100233.00;;;0.39;100.00
75418;BME280;63997;52.112;5.420;2024-01-15T05:10:44;100233.81;;;0.40;100.00
75418;BME280;63997;52.112;5.420;2024-01-15T05:13:11;100216.53;;;0.39;100.00
75418;BME280;63997;52.112;5.420;2024-01-15T05:15:38;100230.66;;;0.43;100.00
75418;BME280;63997;52.112;5.420;2024-01-15T05:18:04;100229.59;;;0.44;100.00
75418;BME280;63997;52.112;5.420;2024-01-15T05:20:32;100224.88;;;0.46;100.00
75418;BME280;63997;52.112;5.420;2024-01-15T05:22:58;100208.91;;;0.47;100.00
75418;BME280;63997;52.112;5.420;2024-01-15T05:25:25;100214.41;;;0.51;100.00
75418;BME280;63997;52.112;5.420;2024-01-15T05:27:51;100212.56;;;0.51;100.00
75418;BME280;63997;52.112;5.420;2024-01-15T05:30:18;100217.28;;;0.49;100.00
75418;BME280;63997;52.112;5.420;2024-01-15T05:32:45;100223.28;;;0.50;100.00
75418;BME280;63997;52.112;5.420;2024-01-15T05:35:11;100216.50;;;0.49;100.00
75418;BME280;63997;52.112;5.420;2024-01-15T05:37:43;100221.72;;;0.49;100.00
75418;BME280;63997;52.112;5.420;2024-01-15T05:40:09;100216.78;;;0.47;100.00
75418;BME280;63997;52.112;5.420;2024-01-15T05:42:36;100230.13;;;0.46;100.00
75418;BME280;63997;52.112;5.420;2024-01-15T05:45:03;100234.31;;;0.47;100.00
75418;BME280;63997;52.112;5.420;2024-01-15T05:47:31;100227.75;;;0.44;100.00
75418;BME280;63997;52.112;5.420;2024-01-15T05:49:58;100223.84;;;0.47;100.00
75418;BME280;63997;52.112;5.420;2024-01-15T05:52:24;100221.72;;;0.49;100.00
75418;BME280;63997;52.112;5.420;2024-01-15T05:54:51;100228.53;;;0.50;100.00
75418;BME280;63997;52.112;5.420;2024-01-15T05:57:18;100224.88;;;0.51;100.00
75418;BME280;63997;52.112;5.420;2024-01-15T05:59:44;100222.50;;;0.55;100.00
75418;BME280;63997;52.112;5.420;2024-01-15T06:02:11;100237.91;;;0.56;100.00
75418;BME280;63997;52.112;5.420;2024-01-15T06:04:37;100240.28;;;0.58;100.00
75418;BME280;63997;52.112;5.420;2024-01-15T06:07:04;100235.31;;;0.56;100.00
75418;BME280;63997;52.112;5.420;2024-01-15T06:09:32;100235.84;;;0.58;100.00
75418;BME280;63997;52.112;5.420;2024-01-15T06:11:59;100243.41;;;0.60;100.00
75418;BME280;63997;52.112;5.420;2024-01-15T06:14:26;100243.69;;;0.58;100.00
75418;BME280;63997;52.112;5.420;2024-01-15T06:16:52;100255.19;;;0.57;100.00
75418;BME280;63997;52.112;5.420;2024-01-15T06:19:19;100228.00;;;0.53;100.00
75418;BME280;63997;52.112;5.420;2024-01-15T06:21:46;100229.84;;;0.52;100.00
75418;BME280;63997;52.112;5.420;2024-01-15T06:24:13;100221.44;;;0.50;100.00
75418;BME280;63997;52.112;5.420;2024-01-15T06:26:40;100214.66;;;0.49;100.00
75418;BME280;63997;52.112;5.420;2024-01-15T06:29:06;100210.47;;;0.48;100.00
75418;BME280;63997;52.112;5.420;2024-01-15T06:31:33;100207.59;;;0.45;100.00
75418;BME280;63997;52.112;5.420;2024-01-15T06:33:59;100221.50;;;0.45;100.00
75418;BME280;63997;52.112;5.420;2024-01-15T06:36:26;100220.69;;;0.45;100.00
75418;BME280;63997;52.112;5.420;2024-01-15T06:38:53;100222.28;;;0.46;100.00
75418;BME280;63997;52.112;5.420;2024-01-15T06:41:19;100212.59;;;0.46;100.00
75418;BME280;63997;52.112;5.420;2024-01-15T06:43:46;100222.25;;;0.51;100.00
75418;BME280;63997;52.112;5.420;2024-01-15T06:46:12;100216.78;;;0.47;100.00
75418;BME280;63997;52.112;5.420;2024-01-15T06:48:39;100213.13;;;0.43;100.00
75418;BME280;63997;52.112;5.420;2024-01-15T06:51:06;100217.56;;;0.43;100.00
75418;BME280;63997;52.112;5.420;2024-01-15T06:53:32;100210.28;;;0.40;100.00
75418;BME280;63997;52.112;5.420;2024-01-15T06:55:59;100210.28;;;0.35;100.00
75418;BME280;63997;52.112;5.420;2024-01-15T06:58:26;100207.91;;;0.33;100.00
75418;BME280;63997;52.112;5.420;2024-01-15T07:00:52;100210.78;;;0.32;100.00
75418;BME280;63997;52.112;5.420;2024-01-15T07:03:19;100194.84;;;0.28;100.00
75418;BME280;63997;52.112;5.420;2024-01-15T07:05:45;100199.28;;;0.28;100.00
75418;BME280;63997;52.112;5.420;2024-01-15T07:08:13;100197.72;;;0.26;100.00
75418;BME280;63997;52.112;5.420;2024-01-15T07:10:40;100191.72;;;0.26;100.00
75418;BME280;63997;52.112;5.420;2024-01-15T07:13:06;100193.28;;;0.27;100.00
75418;BME280;63997;52.112;5.420;2024-01-15T07:15:33;100193.81;;;0.29;100.00
75418;BME280;63997;52.112;5.420;2024-01-15T07:17:59;100207.13;;;0.33;100.00
75418;BME280;63997;52.112;5.420;2024-01-15T07:20:26;100214.72;;;0.34;100.00
75418;BME280;63997;52.112;5.420;2024-01-15T07:22:53;100239.56;;;0.37;100.00
75418;BME280;63997;52.112;5.420;2024-01-15T07:25:19;100247.38;;;0.42;100.00
75418;BME280;63997;52.112;5.420;2024-01-15T07:27:46;100244.25;;;0.40;100.00
75418;BME280;63997;52.112;5.420;2024-01-15T07:30:13;100232.50;;;0.37;100.00
75418;BME280;63997;52.112;5.420;2024-01-15T07:32:40;100224.63;;;0.37;100.00
75418;BME280;63997;52.112;5.420;2024-01-15T07:35:07;100227.75;;;0.39;100.00
75418;BME280;63997;52.112;5.420;2024-01-15T07:37:34;100220.97;;;0.38;100.00
75418;BME280;63997;52.112;5.420;2024-01-15T07:40:00;100217.56;;;0.38;100.00
75418;BME280;63997;52.112;5.420;2024-01-15T07:42:27;100218.91;;;0.40;100.00
75418;BME280;63997;52.112;5.420;2024-01-15T07:44:54;100221.22;;;0.42;100.00
75418;BME280;63997;52.112;5.420;2024-01-15T07:47:20;100214.44;;;0.41;100.00
75418;BME280;63997;52.112;5.420;2024-01-15T07:49:47;100211.03;;;0.40;100.00
75418;BME280;63997;52.112;5.420;2024-01-15T07:52:14;100230.91;;;0.41;100.00
75418;BME280;63997;52.112;5.420;2024-01-15T07:54:41;100246.59;;;0.41;100.00
75418;BME280;63997;52.112;5.420;2024-01-15T07:57:07;100236.94;;;0.42;100.00
75418;BME280;63997;52.112;5.420;2024-01-15T07:59:35;100237.72;;;0.42;100.00
75418;BME280;63997;52.112;5.420;2024-01-15T08:02:01;100239.03;;;0.40;100.00
75418;BME280;63997;52.112;5.420;2024-01-15T08:04:28;100239.53;;;0.42;100.00
75418;BME280;63997;52.112;5.420;2024-01-15T08:06:55;100233.25;;;0.43;100.00
75418;BME280;63997;52.112;5.420;2024-01-15T08:09:23;100231.16;;;0.45;100.00
75418;BME280;63997;52.112;5.420;2024-01-15T08:11:50;100230.13;;;0.46;100.00
75418;BME280;63997;52.112;5.420;2024-01-15T08:14:17;100213.91;;;0.44;100.00
75418;BME280;63997;52.112;5.420;2024-01-15T08:16:44;100209.19;;;0.46;100.00
75418;BME280;63997;52.112;5.420;2024-01-15T08:19:10;100207.59;;;0.45;100.00
75418;BME280;63997;52.112;5.420;2024-01-15T08:21:38;100211.03;;;0.45;100.00
75418;BME280;63997;52.112;5.420;2024-01-15T08:24:04;100212.34;;;0.43;100.00
75418;BME280;63997;52.112;5.420;2024-01-15T08:26:31;100224.63;;;0.42;100.00
75418;BME280;63997;52.112;5.420;2024-01-15T08:29:00;100223.31;;;0.45;100.00
75418;BME280;63997;52.112;5.420;2024-01-15T08:31:27;100230.13;;;0.46;100.00
75418;BME280;63997;52.112;5.420;2024-01-15T08:33:54;100232.47;;;0.47;100.00
75418;BME280;63997;52.112;5.420;2024-01-15T08:36:23;100240.81;;;0.49;100.00
75418;BME280;63997;52.112;5.420;2024-01-15T08:38:51;100233.75;;;0.50;100.00
75418;BME280;63997;52.112;5.420;2024-01-15T08:41:17;100223.28;;;0.50;100.00
75418;BME280;63997;52.112;5.420;2024-01-15T08:43:44;100228.28;;;0.51;100.00
75418;BME280;63997;52.112;5.420;2024-01-15T08:46:10;100223.28;;;0.55;100.00
75418;BME280;63997;52.112;5.420;2024-01-15T08:48:37;100226.66;;;0.61;100.00
75418;BME280;63997;52.112;5.420;2024-01-15T08:51:04;100222.72;;;0.68;100.00
75418;BME280;63997;52.112;5.420;2024-01-15T08:53:30;100226.84;;;0.85;100.00
75418;BME280;63997;52.112;5.420;2024-01-15T08:55:57;100221.00;;;0.98;100.00
75418;BME280;63997;52.112;5.420;2024-01-15T08:58:24;100217.88;;;0.96;100.00
75418;BME280;63997;52.112;5.420;2024-01-15T09:00:51;100224.16;;;0.95;100.00
75418;BME280;63997;52.112;5.420;2024-01-15T09:03:18;100228.88;;;0.93;100.00
75418;BME280;63997;52.112;5.420;2024-01-15T09:05:44;100232.56;;;0.92;100.00
75418;BME280;63997;52.112;5.420;2024-01-15T09:08:11;100233.88;;;0.89;100.00
75418;BME280;63997;52.112;5.420;2024-01-15T09:10:38;100245.38;;;0.93;100.00
75418;BME280;63997;52.112;5.420;2024-01-15T09:13:04;100253.44;;;1.02;100.00
75418;BME280;63997;52.112;5.420;2024-01-15T09:15:31;100253.44;;;1.02;100.00
75418;BME280;63997;52.112;5.420;2024-01-15T09:17:59;100257.16;;;0.96;100.00
75418;BME280;63997;52.112;5.420;2024-01-15T09:20:26;100239.88;;;0.90;100.00
75418;BME280;63997;52.112;5.420;2024-01-15T09:22:53;100237.81;;;0.87;100.00
75418;BME280;63997;52.112;5.420;2024-01-15T09:25:20;100224.22;;;0.85;100.00
75418;BME280;63997;52.112;5.420;2024-01-15T09:27:46;100225.78;;;0.86;100.00
75418;BME280;63997;52.112;5.420;2024-01-15T09:30:13;100237.53;;;0.88;100.00
75418;BME280;63997;52.112;5.420;2024-01-15T09:32:40;100239.38;;;0.88;100.00
75418;BME280;63997;52.112;5.420;2024-01-15T09:35:07;100238.09;;;0.85;100.00
75418;BME280;63997;52.112;5.420;2024-01-15T09:37:34;100233.63;;;0.86;100.00
75418;BME280;63997;52.112;5.420;2024-01-15T09:40:13;100239.13;;;0.84;100.00
75418;BME280;63997;52.112;5.420;2024-01-15T09:42:42;100236.72;;;0.98;100.00
75418;BME280;63997;52.112;5.420;2024-01-15T09:45:09;100227.44;;;1.55;100.00
75418;BME280;63997;52.112;5.420;2024-01-15T09:47:36;100235.25;;;1.65;100.00
75418;BME280;63997;52.112;5.420;2024-01-15T09:50:08;100236.13;;;1.50;100.00
75418;BME280;63997;52.112;5.420;2024-01-15T09:52:36;100227.59;;;1.35;100.00
75418;BME280;63997;52.112;5.420;2024-01-15T09:55:03;100233.16;;;1.23;100.00
75418;BME280;63997;52.112;5.420;2024-01-15T09:57:32;100232.97;;;1.14;100.00
75418;BME280;63997;52.112;5.420;2024-01-15T10:00:01;100236.91;;;1.06;100.00
75418;BME280;63997;52.112;5.420;2024-01-15T10:02:31;100239.84;;;1.00;100.00
75418;BME280;63997;52.112;5.420;2024-01-15T10:04:57;100234.63;;;0.95;100.00
75418;BME280;63997;52.112;5.420;2024-01-15T10:07:25;100241.19;;;0.92;100.00
75418;BME280;63997;52.112;5.420;2024-01-15T10:09:52;100247.69;;;1.00;100.00
75418;BME280;63997;52.112;5.420;2024-01-15T10:12:21;100248.53;;;1.35;100.00
75418;BME280;63997;52.112;5.420;2024-01-15T10:14:48;100245.41;;;2.01;100.00
75418;BME280;63997;52.112;5.420;2024-01-15T10:17:16;100230.34;;;1.88;100.00
75418;BME280;63997;52.112;5.420;2024-01-15T10:19:45;100231.06;;;1.64;100.00
75418;BME280;63997;52.112;5.420;2024-01-15T10:22:16;100236.28;;;1.64;100.00
75418;BME280;63997;52.112;5.420;2024-01-15T10:24:44;100238.97;;;2.17;100.00
75418;BME280;63997;52.112;5.420;2024-01-15T10:27:13;100241.50;;;2.51;100.00
75418;BME280;63997;52.112;5.420;2024-01-15T10:29:41;100254.16;;;2.20;100.00
75418;BME280;63997;52.112;5.420;2024-01-15T10:32:09;100250.75;;;1.91;100.00
75418;BME280;63997;52.112;5.420;2024-01-15T10:34:39;100251.47;;;1.67;100.00
75418;BME280;63997;52.112;5.420;2024-01-15T10:37:08;100253.66;;;1.55;100.00
75418;BME280;63997;52.112;5.420;2024-01-15T10:39:36;100249.00;;;1.47;100.00
75418;BME280;63997;52.112;5.420;2024-01-15T10:42:04;100249.03;;;1.42;100.00
75418;BME280;63997;52.112;5.420;2024-01-15T10:44:30;100240.13;;;1.43;100.00
75418;BME280;63997;52.112;5.420;2024-01-15T10:46:57;100243.16;;;1.55;100.00
75418;BME280;63997;52.112;5.420;2024-01-15T10:49:24;100238.25;;;1.82;100.00
75418;BME280;63997;52.112;5.420;2024-01-15T10:51:58;100238.06;;;2.03;100.00
75418;BME280;63997;52.112;5.420;2024-01-15T10:54:27;100243.41;;;1.93;100.00
75418;BME280;63997;52.112;5.420;2024-01-15T10:56:56;100245.41;;;2.01;100.00
75418;BME280;63997;52.112;5.420;2024-01-15T10:59:23;100243.19;;;2.13;100.00
75418;BME280;63997;52.112;5.420;2024-01-15T11:01:51;100253.94;;;2.17;100.00
75418;BME280;63997;52.112;5.420;2024-01-15T11:04:22;100252.66;;;2.14;100.00
75418;BME280;63997;52.112;5.420;2024-01-15T11:06:55;100253.47;;;2.09;100.00
75418;BME280;63997;52.112;5.420;2024-01-15T11:09:23;100252.75;;;2.04;100.00
75418;BME280;63997;52.112;5.420;2024-01-15T11:11:54;100251.69;;;2.05;100.00
75418;BME280;63997;52.112;5.420;2024-01-15T11:14:39;100265.13;;;1.98;100.00
75418;BME280;63997;52.112;5.420;2024-01-15T11:17:06;100266.22;;;1.92;100.00
75418;BME280;63997;52.112;5.420;2024-01-15T11:19:51;100272.00;;;1.89;100.00
75418;BME280;63997;52.112;5.420;2024-01-15T11:25:14;100268.34;;;1.85;100.00
75418;BME280;63997;52.112;5.420;2024-01-15T11:27:50;100273.91;;;1.78;100.00
75418;BME280;63997;52.112;5.420;2024-01-15T11:30:25;100276.31;;;1.75;100.00
75418;BME280;63997;52.112;5.420;2024-01-15T11:32:52;100274.47;;;1.75;100.00
75418;BME280;63997;52.112;5.420;2024-01-15T11:35:19;100267.91;;;1.78;100.00
75418;BME280;63997;52.112;5.420;2024-01-15T11:40:22;100267.50;;;1.95;100.00
75418;BME280;63997;52.112;5.420;2024-01-15T11:42:49;100266.75;;;1.89;100.00
75418;BME280;63997;52.112;5.420;2024-01-15T11:45:19;100273.38;;;1.81;100.00
75418;BME280;63997;52.112;5.420;2024-01-15T11:48:12;100279.38;;;1.87;100.00
75418;BME280;63997;52.112;5.420;2024-01-15T11:50:41;100276.97;;;1.91;100.00
75418;BME280;63997;52.112;5.420;2024-01-15T11:53:45;100286.41;;;1.92;100.00
75418;BME280;63997;52.112;5.420;2024-01-15T11:56:17;100289.03;;;1.92;100.00
75418;BME280;63997;52.112;5.420;2024-01-15T11:58:45;100280.13;;;1.93;100.00
75418;BME280;63997;52.112;5.420;2024-01-15T12:01:11;100278.75;;;1.95;100.00
75418;BME280;63997;52.112;5.420;2024-01-15T12:03:38;100275.59;;;1.98;100.00
75418;BME280;63997;52.112;5.420;2024-01-15T12:06:06;100286.06;;;2.03;100.00
75418;BME280;63997;52.112;5.420;2024-01-15T12:08:35;100270.00;;;2.10;100.00
75418;BME280;63997;52.112;5.420;2024-01-15T12:11:06;100277.81;;;2.15;100.00
75418;BME280;63997;52.112;5.420;2024-01-15T12:13:33;100285.41;;;2.17;100.00
75418;BME280;63997;52.112;5.420;2024-01-15T12:16:01;100293.00;;;2.18;100.00
75418;BME280;63997;52.112;5.420;2024-01-15T12:18:28;100299.25;;;2.22;100.00
75418;BME280;63997;52.112;5.420;2024-01-15T12:20:55;100298.72;;;2.25;100.00
75418;BME280;63997;52.112;5.420;2024-01-15T12:23:23;100304.47;;;2.27;100.00
75418;BME280;63997;52.112;5.420;2024-01-15T12:25:50;100308.16;;;2.26;100.00
75418;BME280;63997;52.112;5.420;2024-01-15T12:28:16;100310.25;;;2.24;100.00
75418;BME280;63997;52.112;5.420;2024-01-15T12:30:46;100315.00;;;2.22;100.00
75418;BME280;63997;52.112;5.420;2024-01-15T12:33:17;100310.97;;;2.30;100.00
75418;BME280;63997;52.112;5.420;2024-01-15T12:35:44;100324.84;;;2.35;100.00
75418;BME280;63997;52.112;5.420;2024-01-15T12:38:12;100330.59;;;2.37;100.00
75418;BME280;63997;52.112;5.420;2024-01-15T12:40:39;100333.78;;;2.34;100.00
75418;BME280;63997;52.112;5.420;2024-01-15T12:43:06;100342.25;;;2.26;100.00
75418;BME280;63997;52.112;5.420;2024-01-15T12:45:34;100338.69;;;2.12;100.00
75418;BME280;63997;52.112;5.420;2024-01-15T12:48:05;100341.38;;;2.02;100.00
75418;BME280;63997;52.112;5.420;2024-01-15T12:50:34;100336.75;;;1.89;100.00
75418;BME280;63997;52.112;5.420;2024-01-15T12:53:02;100339.72;;;1.77;100.00
75418;BME280;63997;52.112;5.420;2024-01-15T12:55:28;100339.47;;;1.73;100.00
75418;BME280;63997;52.112;5.420;2024-01-15T12:57:55;100335.81;;;1.74;100.00